createdAt,value
2018-03-02T00:01:33.653Z,99482.08
2018-03-02T00:04:01.258Z,99473.22
2018-03-02T00:06:29.399Z,99475.28
2018-03-02T00:08:57.034Z,99474.41
2018-03-02T00:11:24.712Z,99476.05
2018-03-02T00:13:52.375Z,99464.34
2018-03-02T00:16:19.986Z,99467.93
2018-03-02T00:18:47.530Z,99473.53
2018-03-02T00:21:15.119Z,99471.36
2018-03-02T00:23:42.676Z,99462.88
2018-03-02T00:26:10.262Z,99455.62
2018-03-02T00:28:37.867Z,99452.53
2018-03-02T00:31:05.739Z,99443.20
2018-03-02T00:33:33.656Z,99443.27
2018-03-02T00:36:01.267Z,99437.65
2018-03-02T00:38:28.850Z,99440.45
2018-03-02T00:40:56.603Z,99438.61
2018-03-02T00:43:24.153Z,99441.14
2018-03-02T00:45:51.707Z,99430.70
2018-03-02T00:48:19.299Z,99423.97
2018-03-02T00:50:46.842Z,99418.85
2018-03-02T00:53:14.430Z,99422.81
2018-03-02T00:55:42.062Z,99424.88
2018-03-02T00:58:09.650Z,99407.58
2018-03-02T01:00:37.202Z,99401.47
2018-03-02T01:03:04.983Z,99405.74
2018-03-02T01:05:32.748Z,99399.15
2018-03-02T01:08:00.565Z,99390.27
2018-03-02T01:10:28.107Z,99392.94
2018-03-02T01:12:55.690Z,99378.13
2018-03-02T01:15:23.240Z,99381.84
2018-03-02T01:17:50.793Z,99372.88
2018-03-02T01:20:18.373Z,99364.61
2018-03-02T01:22:45.927Z,99362.98
2018-03-02T01:25:13.506Z,99359.41
2018-03-02T01:27:41.587Z,99359.08
2018-03-02T01:30:09.164Z,99343.76
2018-03-02T01:32:36.744Z,99330.44
2018-03-02T01:35:04.339Z,99329.41
2018-03-02T01:37:31.955Z,99340.61
2018-03-02T01:39:59.530Z,99319.53
2018-03-02T01:42:27.146Z,99333.36
2018-03-02T01:44:54.722Z,99330.37
2018-03-02T01:47:22.262Z,99338.20
2018-03-02T01:49:49.854Z,99333.22
2018-03-02T01:52:17.714Z,99328.12
2018-03-02T01:54:45.295Z,99322.98
2018-03-02T01:57:13.004Z,99306.10
2018-03-02T01:59:40.984Z,99310.17
2018-03-02T02:02:08.606Z,99301.20
2018-03-02T02:04:36.514Z,99280.85
2018-03-02T02:07:04.111Z,99268.32
2018-03-02T02:09:31.663Z,99276.39
2018-03-02T02:11:59.206Z,99290.38
2018-03-02T02:14:26.797Z,99279.45
2018-03-02T02:16:54.716Z,99280.70
2018-03-02T02:19:22.305Z,99280.73
2018-03-02T02:21:49.848Z,99272.14
2018-03-02T02:24:17.828Z,99258.02
2018-03-02T02:26:45.379Z,99253.97
2018-03-02T02:29:12.971Z,99253.51
2018-03-02T02:31:40.528Z,99250.58
2018-03-02T02:34:08.171Z,99251.31
2018-03-02T02:36:35.762Z,99255.13
2018-03-02T02:39:04.260Z,99247.26
2018-03-02T02:41:31.910Z,99251.83
2018-03-02T02:43:59.519Z,99267.83
2018-03-02T02:46:27.403Z,99254.94
2018-03-02T02:48:54.952Z,99249.30
2018-03-02T02:51:22.543Z,99258.51
2018-03-02T02:53:50.125Z,99269.13
2018-03-02T02:56:17.670Z,99267.67
2018-03-02T02:58:46.107Z,99276.00
2018-03-02T03:01:13.654Z,99271.75
2018-03-02T03:03:41.226Z,99257.22
2018-03-02T03:06:09.251Z,99248.08
2018-03-02T03:08:37.278Z,99256.89
2018-03-02T03:11:04.878Z,99253.37
2018-03-02T03:13:32.431Z,99243.61
2018-03-02T03:16:00.092Z,99251.52
2018-03-02T03:18:27.634Z,99235.98
2018-03-02T03:20:55.231Z,99243.20
2018-03-02T03:23:22.863Z,99237.64
2018-03-02T03:25:50.415Z,99233.30
2018-03-02T03:28:18.010Z,99221.83
2018-03-02T03:30:45.614Z,99220.81
2018-03-02T03:33:13.168Z,99229.91
2018-03-02T03:35:40.714Z,99213.89
2018-03-02T03:38:08.330Z,99226.14
2018-03-02T03:40:35.882Z,99221.16
2018-03-02T03:43:03.486Z,99218.98
2018-03-02T03:45:31.030Z,99218.09
2018-03-02T03:47:58.577Z,99209.55
2018-03-02T03:50:26.667Z,99207.25
2018-03-02T03:52:54.506Z,99198.00
2018-03-02T03:55:22.340Z,99203.34
2018-03-02T03:57:49.924Z,99196.86
2018-03-02T04:00:17.475Z,99198.92
2018-03-02T04:02:46.036Z,99191.33
2018-03-02T04:05:13.647Z,99185.56
2018-03-02T04:07:41.227Z,99165.72
2018-03-02T04:10:08.838Z,99178.27
2018-03-02T04:12:36.431Z,99171.67
2018-03-02T04:15:04.195Z,99170.44
2018-03-02T04:17:31.741Z,99175.26
2018-03-02T04:19:59.466Z,99177.59
2018-03-02T04:22:27.005Z,99166.08
2018-03-02T04:24:54.582Z,99164.27
2018-03-02T04:27:22.189Z,99162.55
2018-03-02T04:29:49.735Z,99159.23
2018-03-02T04:32:17.287Z,99159.55
2018-03-02T04:34:44.858Z,99149.16
2018-03-02T04:37:12.443Z,99144.39
2018-03-02T04:39:40.322Z,99123.09
2018-03-02T04:42:08.087Z,99134.38
2018-03-02T04:44:35.675Z,99136.77
2018-03-02T04:47:03.214Z,99126.02
2018-03-02T04:49:30.798Z,99119.50
2018-03-02T04:51:58.338Z,99132.72
2018-03-02T04:54:25.922Z,99127.65
2018-03-02T04:56:53.470Z,99126.39
2018-03-02T04:59:22.357Z,99133.15
2018-03-02T05:01:50.866Z,99126.94
2018-03-02T05:04:18.419Z,99127.59
2018-03-02T05:06:46.024Z,99122.48
2018-03-02T05:09:14.039Z,99121.50
2018-03-02T05:11:42.110Z,99113.40
2018-03-02T05:14:09.715Z,99114.50
2018-03-02T05:16:37.275Z,99117.31
2018-03-02T05:19:04.822Z,99113.34
2018-03-02T05:21:32.398Z,99122.52
2018-03-02T05:24:00.278Z,99116.63
2018-03-02T05:26:28.389Z,99126.91
2018-03-02T05:28:56.325Z,99112.32
2018-03-02T05:31:24.490Z,99110.14
2018-03-02T05:33:52.039Z,99116.98
2018-03-02T05:36:19.655Z,99097.66
2018-03-02T05:38:47.190Z,99101.50
2018-03-02T05:41:14.767Z,99110.59
2018-03-02T05:43:42.366Z,99114.86
2018-03-02T05:46:10.308Z,99103.76
2018-03-02T05:48:37.961Z,99115.33
2018-03-02T05:51:05.507Z,99120.07
2018-03-02T05:53:33.488Z,99116.60
2018-03-02T05:56:01.394Z,99125.41
2018-03-02T05:58:29.768Z,99130.50
2018-03-02T06:00:58.320Z,99126.05
2018-03-02T06:03:25.878Z,99129.86
2018-03-02T06:05:53.426Z,99118.31
2018-03-02T06:08:21.014Z,99104.95
2018-03-02T06:10:48.588Z,99107.50
2018-03-02T06:13:17.142Z,99111.91
2018-03-02T06:15:45.382Z,99110.60
2018-03-02T06:18:13.920Z,99106.86
2018-03-02T06:20:41.740Z,99106.43
2018-03-02T06:23:09.352Z,99096.23
2018-03-02T06:25:36.942Z,99095.81
2018-03-02T06:28:04.505Z,99102.22
2018-03-02T06:30:32.719Z,99099.20
2018-03-02T06:33:00.269Z,99094.93
2018-03-02T06:35:27.901Z,99092.86
2018-03-02T06:37:55.782Z,99089.97
2018-03-02T06:40:23.326Z,99082.70
2018-03-02T06:42:50.920Z,99074.69
2018-03-02T06:45:18.873Z,99074.28
2018-03-02T06:47:46.427Z,99076.41
2018-03-02T06:50:14.014Z,99078.97
2018-03-02T06:52:41.843Z,99079.13
2018-03-02T06:55:09.809Z,99079.62
2018-03-02T06:57:37.416Z,99078.23
2018-03-02T07:00:05.827Z,99071.49
2018-03-02T07:02:33.659Z,99075.36
2018-03-02T07:05:01.239Z,99087.25
2018-03-02T07:07:29.191Z,99084.73
2018-03-02T07:09:56.750Z,99088.14
2018-03-02T07:12:25.268Z,99079.56
2018-03-02T07:14:53.078Z,99081.62
2018-03-02T07:17:20.666Z,99071.80
2018-03-02T07:19:48.247Z,99070.52
2018-03-02T07:22:16.736Z,99075.61
2018-03-02T07:24:44.682Z,99071.34
2018-03-02T07:27:12.227Z,99073.12
2018-03-02T07:29:39.810Z,99071.80
2018-03-02T07:32:08.150Z,99065.80
2018-03-02T07:34:36.132Z,99062.41
2018-03-02T07:37:03.712Z,99062.82
2018-03-02T07:39:31.315Z,99063.31
2018-03-02T07:41:58.895Z,99056.05
2018-03-02T07:44:26.443Z,99059.88
2018-03-02T07:46:54.402Z,99051.35
2018-03-02T07:49:21.967Z,99046.19
2018-03-02T07:51:49.555Z,99045.36
2018-03-02T07:54:17.497Z,99047.08
2018-03-02T07:56:45.090Z,99052.64
2018-03-02T07:59:12.631Z,99044.08
2018-03-02T08:01:40.187Z,99044.08
2018-03-02T08:04:08.069Z,99047.52
2018-03-02T08:06:35.606Z,99042.41
2018-03-02T08:09:03.600Z,99042.40
2018-03-02T08:11:31.431Z,99030.38
2018-03-02T08:13:59.006Z,99026.09
2018-03-02T08:16:26.628Z,99019.17
2018-03-02T08:18:54.361Z,99017.67
2018-03-02T08:21:21.905Z,99021.59
2018-03-02T08:23:49.576Z,99017.03
2018-03-02T08:26:17.309Z,99011.48
2018-03-02T08:28:44.892Z,99014.84
2018-03-02T08:31:12.482Z,99011.81
2018-03-02T08:33:40.023Z,99001.09
2018-03-02T08:36:07.602Z,99004.05
2018-03-02T08:38:35.419Z,99007.73
2018-03-02T08:41:03.919Z,99008.58
2018-03-02T08:43:31.835Z,99005.55
2018-03-02T08:45:59.398Z,99006.42
2018-03-02T08:48:27.192Z,99004.70
2018-03-02T08:50:54.947Z,99003.03
2018-03-02T08:53:22.559Z,98997.97
2018-03-02T08:55:50.404Z,98997.47
2018-03-02T08:58:18.348Z,98999.77
2018-03-02T09:00:45.950Z,98987.11
2018-03-02T09:03:13.840Z,98985.52
2018-03-02T09:05:41.803Z,98980.84
2018-03-02T09:08:10.252Z,98994.36
2018-03-02T09:10:38.298Z,98980.18
2018-03-02T09:13:05.840Z,98974.41
2018-03-02T09:15:33.861Z,98971.11
2018-03-02T09:18:01.584Z,98975.97
2018-03-02T09:20:29.387Z,98970.80
2018-03-02T09:22:57.125Z,98964.20
2018-03-02T09:25:24.723Z,98955.92
2018-03-02T09:27:52.552Z,98966.66
2018-03-02T09:30:20.142Z,98972.03
2018-03-02T09:32:48.559Z,98977.08
2018-03-02T09:35:16.155Z,98963.69
2018-03-02T09:37:43.740Z,98974.70
2018-03-02T09:40:11.275Z,98976.01
2018-03-02T09:42:38.868Z,98976.46
2018-03-02T09:45:06.567Z,98969.81
2018-03-02T09:47:34.920Z,98965.96
2018-03-02T09:50:03.094Z,98961.27
2018-03-02T09:52:30.669Z,98965.59
2018-03-02T09:54:58.259Z,98949.66
2018-03-02T09:57:26.155Z,98961.73
2018-03-02T09:59:55.044Z,98947.50
2018-03-02T10:02:22.960Z,98957.49
2018-03-02T10:04:51.444Z,98948.42
2018-03-02T10:07:19.100Z,98944.88
2018-03-02T10:09:47.014Z,98934.17
2018-03-02T10:12:15.400Z,98935.72
2018-03-02T10:14:43.320Z,98929.80
2018-03-02T10:17:10.906Z,98915.52
2018-03-02T10:19:38.447Z,98927.34
2018-03-02T10:22:06.051Z,98924.78
2018-03-02T10:24:34.023Z,98915.20
2018-03-02T10:27:02.768Z,98904.91
2018-03-02T10:29:30.360Z,98900.77
2018-03-02T10:31:57.969Z,98902.98
2018-03-02T10:34:25.560Z,98892.70
2018-03-02T10:36:53.146Z,98889.27
2018-03-02T10:39:20.747Z,98900.19
2018-03-02T10:41:48.365Z,98889.39
2018-03-02T10:44:15.983Z,98893.24
2018-03-02T10:46:43.526Z,98887.13
2018-03-02T10:49:11.149Z,98879.55
2018-03-02T10:51:38.682Z,98876.31
2018-03-02T10:54:06.338Z,98878.88
2018-03-02T10:56:33.921Z,98884.72
2018-03-02T10:59:01.471Z,98876.26
2018-03-02T11:01:29.566Z,98871.57
2018-03-02T11:04:01.048Z,98864.61
2018-03-02T11:06:28.663Z,98862.88
2018-03-02T11:08:56.235Z,98863.77
2018-03-02T11:11:23.889Z,98860.36
2018-03-02T11:13:51.474Z,98864.47
2018-03-02T11:16:19.043Z,98853.90
2018-03-02T11:18:46.633Z,98845.36
2018-03-02T11:21:14.220Z,98840.13
2018-03-02T11:23:41.879Z,98835.31
2018-03-02T11:26:09.489Z,98832.44
2018-03-02T11:28:38.628Z,98825.45
2018-03-02T11:31:06.214Z,98826.28
2018-03-02T11:33:33.883Z,98813.85
2018-03-02T11:36:02.564Z,98809.66
2018-03-02T11:38:30.118Z,98812.83
2018-03-02T11:40:57.740Z,98803.98
2018-03-02T11:43:26.195Z,98798.94
2018-03-02T11:45:53.758Z,98799.08
2018-03-02T11:48:23.296Z,98785.33
2018-03-02T11:50:51.304Z,98776.96
2018-03-02T11:53:18.930Z,98772.89
2018-03-02T11:55:47.148Z,98774.86
2018-03-02T11:58:14.691Z,98769.32
2018-03-02T12:00:42.279Z,98759.23
2018-03-02T12:03:09.838Z,98746.04
2018-03-02T12:05:37.495Z,98751.52
2018-03-02T12:08:05.114Z,98735.56
2018-03-02T12:10:33.863Z,98723.80
2018-03-02T12:13:02.350Z,98723.15
2018-03-02T12:15:29.943Z,98732.73
2018-03-02T12:17:57.492Z,98727.41
2018-03-02T12:20:25.579Z,98730.62
2018-03-02T12:22:53.154Z,98723.64
2018-03-02T12:25:21.342Z,98719.15
2018-03-02T12:27:49.334Z,98723.19
2018-03-02T12:30:20.776Z,98712.53
2018-03-02T12:32:49.580Z,98711.32
2018-03-02T12:35:17.579Z,98705.20
2018-03-02T12:37:45.164Z,98705.24
2018-03-02T12:40:12.846Z,98711.41
2018-03-02T12:42:41.574Z,98690.86
2018-03-02T12:45:09.153Z,98680.89
2018-03-02T12:47:36.805Z,98679.81
2018-03-02T12:50:05.803Z,98681.16
2018-03-02T12:52:33.355Z,98678.98
2018-03-02T12:55:00.939Z,98670.56
2018-03-02T12:57:28.532Z,98658.84
2018-03-02T12:59:56.105Z,98646.45
2018-03-02T13:02:23.695Z,98636.66
2018-03-02T13:04:51.430Z,98639.52
2018-03-02T13:07:19.778Z,98637.08
2018-03-02T13:09:47.386Z,98634.19
2018-03-02T13:12:15.896Z,98618.35
2018-03-02T13:14:43.480Z,98629.15
2018-03-02T13:17:13.189Z,98634.84
2018-03-02T13:19:40.762Z,98621.51
2018-03-02T13:22:20.106Z,98609.98
2018-03-02T13:24:48.597Z,98607.55
2018-03-02T13:27:27.757Z,98583.25
2018-03-02T13:29:55.294Z,98585.09
2018-03-02T13:32:22.852Z,98591.41
2018-03-02T13:35:02.013Z,98591.13
2018-03-02T13:37:30.096Z,98595.86
2018-03-02T13:40:09.526Z,98581.20
2018-03-02T13:42:38.839Z,98575.26
2018-03-02T13:45:06.428Z,98572.91
2018-03-02T13:50:50.990Z,98563.88
2018-03-02T13:53:18.571Z,98567.97
2018-03-02T13:55:46.146Z,98569.66
2018-03-02T13:58:14.790Z,98564.55
2018-03-02T14:00:42.398Z,98549.34
2018-03-02T14:03:22.115Z,98545.63
2018-03-02T14:05:49.711Z,98538.63
2018-03-02T14:08:17.306Z,98542.73
2018-03-02T14:10:45.169Z,98545.58
2018-03-02T14:13:12.717Z,98546.84
2018-03-02T14:15:40.320Z,98542.28
2018-03-02T14:18:07.902Z,98548.22
2018-03-02T14:20:36.017Z,98547.24
2018-03-02T14:23:03.616Z,98525.95
2018-03-02T14:25:32.142Z,98528.60
2018-03-02T14:27:59.714Z,98499.95
2018-03-02T14:30:28.196Z,98499.53
2018-03-02T14:32:56.877Z,98506.47
2018-03-02T14:35:24.483Z,98501.36
2018-03-02T14:37:52.935Z,98497.26
2018-03-02T14:40:20.489Z,98509.88
2018-03-02T14:42:48.512Z,98506.17
2018-03-02T14:45:16.064Z,98495.11
2018-03-02T14:47:43.657Z,98492.86
2018-03-02T14:50:11.264Z,98487.39
2018-03-02T14:52:38.802Z,98483.93
2018-03-02T14:55:06.375Z,98471.23
2018-03-02T14:57:34.832Z,98462.19
2018-03-02T15:00:03.592Z,98463.03
2018-03-02T15:02:31.147Z,98470.64
2018-03-02T15:04:59.913Z,98471.70
2018-03-02T15:07:27.519Z,98466.59
2018-03-02T15:09:56.105Z,98468.21
2018-03-02T15:12:24.221Z,98481.01
2018-03-02T15:14:51.778Z,98476.84
2018-03-02T15:17:19.384Z,98488.51
2018-03-02T15:19:46.927Z,98459.48
2018-03-02T15:22:14.480Z,98445.85
2018-03-02T15:24:42.082Z,98469.11
2018-03-02T15:27:10.266Z,98433.83
2018-03-02T15:29:38.655Z,98448.86
2018-03-02T15:32:06.200Z,98459.81
2018-03-02T15:34:35.587Z,98448.99
2018-03-02T15:37:03.164Z,98450.66
2018-03-02T15:39:30.757Z,98444.03
2018-03-02T15:41:58.359Z,98441.73
2018-03-02T15:44:25.902Z,98427.00
2018-03-02T15:46:54.230Z,98442.02
2018-03-02T15:49:21.819Z,98432.16
2018-03-02T15:51:49.558Z,98414.70
2018-03-02T15:54:17.168Z,98422.86
2018-03-02T15:56:45.514Z,98431.09
2018-03-02T15:59:13.667Z,98424.34
2018-03-02T16:01:42.924Z,98419.81
2018-03-02T16:04:11.595Z,98404.33
2018-03-02T16:06:39.142Z,98407.83
2018-03-02T16:09:07.675Z,98418.19
2018-03-02T16:11:35.227Z,98416.63
2018-03-02T16:14:03.026Z,98429.17
2018-03-02T16:16:30.692Z,98412.70
2018-03-02T16:18:58.784Z,98425.72
2018-03-02T16:21:26.377Z,98417.85
2018-03-02T16:23:53.987Z,98400.95
2018-03-02T16:26:21.546Z,98411.38
2018-03-02T16:28:49.716Z,98409.98
2018-03-02T16:31:17.343Z,98410.21
2018-03-02T16:33:45.433Z,98415.14
2018-03-02T16:36:13.495Z,98407.41
2018-03-02T16:38:41.395Z,98394.67
2018-03-02T16:41:08.972Z,98397.40
2018-03-02T16:43:36.558Z,98383.47
2018-03-02T16:46:04.106Z,98392.80
2018-03-02T16:48:31.704Z,98378.15
2018-03-02T16:51:00.606Z,98376.72
2018-03-02T16:53:28.216Z,98387.48
2018-03-02T16:55:55.972Z,98406.50
2018-03-02T16:58:23.874Z,98411.93
2018-03-02T17:00:52.492Z,98390.70
2018-03-02T17:03:20.076Z,98398.56
2018-03-02T17:05:47.677Z,98389.72
2018-03-02T17:08:16.792Z,98382.25
2018-03-02T17:10:44.773Z,98373.29
2018-03-02T17:13:13.430Z,98372.98
2018-03-02T17:15:41.488Z,98391.77
2018-03-02T17:18:10.158Z,98393.71
2018-03-02T17:20:37.705Z,98391.25
2018-03-02T17:23:06.336Z,98391.23
2018-03-02T17:25:34.310Z,98397.38
2018-03-02T17:28:02.297Z,98386.40
2018-03-02T17:30:31.797Z,98371.22
2018-03-02T17:32:59.901Z,98357.78
2018-03-02T17:35:27.698Z,98368.22
2018-03-02T17:37:55.325Z,98376.35
2018-03-02T17:40:22.895Z,98374.20
2018-03-02T17:42:50.997Z,98362.23
2018-03-02T17:45:19.240Z,98373.61
2018-03-02T17:47:47.534Z,98386.61
2018-03-02T17:50:15.729Z,98370.25
2018-03-02T17:52:44.476Z,98360.67
2018-03-02T17:55:12.301Z,98373.06
2018-03-02T17:57:40.447Z,98386.00
2018-03-02T18:00:09.333Z,98383.57
2018-03-02T18:02:37.844Z,98368.20
2018-03-02T18:05:05.871Z,98367.61
2018-03-02T18:07:34.714Z,98371.04
2018-03-02T18:10:02.341Z,98369.10
2018-03-02T18:12:30.250Z,98364.65
2018-03-02T18:14:58.145Z,98352.13
2018-03-02T18:17:30.037Z,98348.05
2018-03-02T18:19:58.207Z,98331.45
2018-03-02T18:22:27.286Z,98348.22
2018-03-02T18:24:55.344Z,98335.33
2018-03-02T18:27:23.582Z,98342.00
2018-03-02T18:29:52.270Z,98334.63
2018-03-02T18:32:20.668Z,98330.14
2018-03-02T18:34:49.324Z,98322.84
2018-03-02T18:37:18.193Z,98326.88
2018-03-02T18:39:46.168Z,98310.36
2018-03-02T18:42:13.769Z,98311.58
2018-03-02T18:44:41.392Z,98327.63
2018-03-02T18:47:09.962Z,98325.78
2018-03-02T18:49:37.734Z,98333.05
2018-03-02T18:52:06.346Z,98318.81
2018-03-02T18:54:33.953Z,98301.26
2018-03-02T18:57:01.503Z,98295.85
2018-03-02T18:59:29.406Z,98303.22
2018-03-02T19:01:58.724Z,98321.09
2018-03-02T19:04:27.008Z,98312.55
2018-03-02T19:06:55.025Z,98293.88
2018-03-02T19:09:23.032Z,98307.88
2018-03-02T19:11:51.318Z,98305.02
2018-03-02T19:14:19.558Z,98298.64
2018-03-02T19:16:48.299Z,98278.06
2018-03-02T19:19:16.775Z,98279.16
2018-03-02T19:21:45.508Z,98281.58
2018-03-02T19:24:13.735Z,98290.91
2018-03-02T19:26:41.360Z,98301.01
2018-03-02T19:29:09.032Z,98289.28
2018-03-02T19:31:37.776Z,98275.84
2018-03-02T19:34:08.786Z,98288.98
2018-03-02T19:36:37.478Z,98282.94
2018-03-02T19:39:05.868Z,98272.56
2018-03-02T19:41:34.321Z,98284.80
2018-03-02T19:44:03.940Z,98292.63
2018-03-02T19:46:32.303Z,98282.64
2018-03-02T19:49:03.546Z,98277.20
2018-03-02T19:51:31.909Z,98264.70
2018-03-02T19:54:00.200Z,98242.31
2018-03-02T19:56:28.777Z,98255.73
2018-03-02T19:58:57.583Z,98252.80
2018-03-02T20:01:26.156Z,98254.61
2018-03-02T20:03:55.141Z,98224.14
2018-03-02T20:06:23.633Z,98222.45
2018-03-02T20:08:51.821Z,98224.45
2018-03-02T20:11:20.093Z,98228.03
2018-03-02T20:13:48.694Z,98224.69
2018-03-02T20:16:17.983Z,98219.22
2018-03-02T20:18:46.035Z,98196.09
2018-03-02T20:21:15.747Z,98211.16
2018-03-02T20:23:44.174Z,98230.78
2018-03-02T20:26:12.934Z,98230.41
2018-03-02T20:28:40.703Z,98211.02
2018-03-02T20:31:08.707Z,98208.08
2018-03-02T20:33:37.204Z,98205.81
2018-03-02T20:36:05.986Z,98203.61
2018-03-02T20:38:35.045Z,98194.77
2018-03-02T20:41:02.607Z,98208.39
2018-03-02T20:43:30.571Z,98228.18
2018-03-02T20:45:58.788Z,98225.60
2018-03-02T20:48:26.398Z,98224.80
2018-03-02T20:50:54.724Z,98225.28
2018-03-02T20:53:22.377Z,98207.89
2018-03-02T20:55:49.958Z,98201.41
2018-03-02T20:58:18.123Z,98222.90
2018-03-02T21:00:45.755Z,98235.40
2018-03-02T21:03:13.320Z,98214.91
2018-03-02T21:05:40.945Z,98203.22
2018-03-02T21:08:10.203Z,98207.37
2018-03-02T21:10:38.491Z,98191.89
2018-03-02T21:13:06.047Z,98204.95
2018-03-02T21:15:33.680Z,98192.67
2018-03-02T21:18:01.248Z,98183.81
2018-03-02T21:20:29.661Z,98186.19
2018-03-02T21:22:57.634Z,98180.20
2018-03-02T21:25:25.533Z,98176.91
2018-03-02T21:27:53.141Z,98184.88
2018-03-02T21:30:21.238Z,98209.19
2018-03-02T21:32:49.412Z,98202.34
2018-03-02T21:35:16.985Z,98170.66
2018-03-02T21:37:44.589Z,98181.56
2018-03-02T21:40:13.096Z,98174.28
2018-03-02T21:42:40.700Z,98162.44
2018-03-02T21:45:08.674Z,98167.91
2018-03-02T21:47:37.009Z,98157.37
2018-03-02T21:50:04.580Z,98182.35
2018-03-02T21:52:32.185Z,98162.83
2018-03-02T21:54:59.742Z,98156.91
2018-03-02T21:57:27.856Z,98140.55
2018-03-02T21:59:55.461Z,98130.25
2018-03-02T22:02:23.011Z,98132.58
2018-03-02T22:04:50.620Z,98113.38
2018-03-02T22:07:18.175Z,98107.36
2018-03-02T22:09:46.582Z,98099.52
2018-03-02T22:12:14.988Z,98109.42
2018-03-02T22:14:42.562Z,98110.53
2018-03-02T22:17:10.629Z,98120.61
2018-03-02T22:19:39.025Z,98091.66
2018-03-02T22:22:06.571Z,98076.09
2018-03-02T22:24:34.192Z,98080.64
2018-03-02T22:27:01.796Z,98093.03
2018-03-02T22:29:29.356Z,98080.47
2018-03-02T22:31:57.304Z,98070.80
2018-03-02T22:34:24.897Z,98083.94
2018-03-02T22:36:52.447Z,98101.88
2018-03-02T22:39:20.118Z,98101.78
2018-03-02T22:41:47.639Z,98092.54
2018-03-02T22:44:15.236Z,98087.11
2018-03-02T22:46:42.823Z,98076.80
2018-03-02T22:49:10.370Z,98065.05
2018-03-02T22:51:38.437Z,98062.53
2018-03-02T22:54:05.993Z,98047.42
2018-03-02T22:56:33.584Z,98040.85
2018-03-02T22:59:01.468Z,98015.27
2018-03-02T23:01:29.028Z,98037.81
2018-03-02T23:03:57.093Z,98038.87
2018-03-02T23:06:24.688Z,98036.27
2018-03-02T23:08:52.245Z,98054.15
2018-03-02T23:11:19.828Z,98052.63
2018-03-02T23:13:47.909Z,98043.31
2018-03-02T23:16:15.920Z,98050.11
2018-03-02T23:18:43.526Z,98046.07
2018-03-02T23:21:11.079Z,98033.52
2018-03-02T23:23:38.699Z,98027.84
2018-03-02T23:26:06.296Z,98037.20
2018-03-02T23:28:33.887Z,98059.33
2018-03-02T23:31:01.496Z,98038.37
2018-03-02T23:33:29.452Z,98062.50
2018-03-02T23:35:57.055Z,98044.42
2018-03-02T23:38:25.109Z,98030.69
2018-03-02T23:40:52.656Z,98029.67
2018-03-02T23:43:20.600Z,98032.00
2018-03-02T23:45:48.190Z,98027.11
2018-03-02T23:48:16.754Z,98037.44
2018-03-02T23:50:44.347Z,98023.69
2018-03-02T23:53:11.905Z,98041.02
2018-03-02T23:55:39.493Z,98038.24
2018-03-02T23:58:07.430Z,98045.61
